createdAt,value
2019-04-06T00:00:31.682Z,99.90
2019-04-06T00:03:00.605Z,99.90
2019-04-06T00:05:29.524Z,99.90
2019-04-06T00:07:58.461Z,99.90
2019-04-06T00:10:27.538Z,99.90
2019-04-06T00:12:56.557Z,99.90
2019-04-06T00:15:25.482Z,99.90
2019-04-06T00:17:54.430Z,99.90
2019-04-06T00:20:23.459Z,99.90
2019-04-06T00:22:52.394Z,99.90
2019-04-06T00:25:23.389Z,99.90
2019-04-06T00:27:52.341Z,99.90
2019-04-06T00:30:22.303Z,99.90
2019-04-06T00:32:58.409Z,99.90
2019-04-06T00:35:27.387Z,99.90
2019-04-06T00:37:56.413Z,99.90
2019-04-06T00:40:25.367Z,99.90
2019-04-06T00:42:54.289Z,99.90
2019-04-06T00:45:23.291Z,99.90
2019-04-06T00:47:52.406Z,99.90
2019-04-06T00:50:21.466Z,99.90
2019-04-06T00:52:50.890Z,99.90
2019-04-06T00:55:19.902Z,99.90
2019-04-06T00:57:49.118Z,99.90
2019-04-06T01:00:18.286Z,99.90
2019-04-06T01:02:47.321Z,99.90
2019-04-06T01:05:16.663Z,99.90
2019-04-06T01:07:45.998Z,99.90
2019-04-06T01:10:15.270Z,99.90
2019-04-06T01:12:44.201Z,99.90
2019-04-06T01:15:13.282Z,99.90
2019-04-06T01:17:42.396Z,99.90
2019-04-06T01:20:11.476Z,99.90
2019-04-06T01:22:40.496Z,99.90
2019-04-06T01:25:09.863Z,99.90
2019-04-06T01:27:38.756Z,99.90
2019-04-06T01:30:08.157Z,99.90
2019-04-06T01:32:37.181Z,99.90
2019-04-06T01:35:06.414Z,99.90
2019-04-06T01:37:35.364Z,99.90
2019-04-06T01:40:04.905Z,99.90
2019-04-06T01:42:33.957Z,99.90
2019-04-06T01:45:02.963Z,99.90
2019-04-06T01:47:31.992Z,99.90
2019-04-06T01:50:00.927Z,99.90
2019-04-06T01:52:29.848Z,99.90
2019-04-06T01:54:59.307Z,99.90
2019-04-06T01:57:28.529Z,99.90
2019-04-06T01:59:57.752Z,99.90
2019-04-06T02:02:29.585Z,99.90
2019-04-06T02:04:58.614Z,99.90
2019-04-06T02:07:27.610Z,99.90
2019-04-06T02:09:56.713Z,99.90
2019-04-06T02:12:25.645Z,99.90
2019-04-06T02:14:54.676Z,99.90
2019-04-06T02:17:23.976Z,99.90
2019-04-06T02:19:52.960Z,99.90
2019-04-06T02:22:21.883Z,99.90
2019-04-06T02:24:50.825Z,99.90
2019-04-06T02:27:20.079Z,99.90
2019-04-06T02:30:09.335Z,99.90
2019-04-06T02:32:52.739Z,99.90
2019-04-06T02:35:31.936Z,99.90
2019-04-06T02:38:19.991Z,99.90
2019-04-06T02:40:58.660Z,99.90
2019-04-06T02:43:30.139Z,99.90
2019-04-06T02:45:59.260Z,99.90
2019-04-06T02:48:28.360Z,99.90
2019-04-06T02:50:58.067Z,99.90
2019-04-06T02:53:26.988Z,99.90
2019-04-06T02:55:56.074Z,99.90
2019-04-06T02:58:25.469Z,99.90
2019-04-06T03:00:54.444Z,99.90
2019-04-06T03:03:23.418Z,99.90
2019-04-06T03:05:52.467Z,99.90
2019-04-06T03:08:21.503Z,99.90
2019-04-06T03:10:50.813Z,99.90
2019-04-06T03:13:20.157Z,99.90
2019-04-06T03:15:49.285Z,99.90
2019-04-06T03:18:18.425Z,99.90
2019-04-06T03:20:47.383Z,99.90
2019-04-06T03:23:16.521Z,99.90
2019-04-06T03:25:45.570Z,99.90
2019-04-06T03:28:14.872Z,99.90
2019-04-06T03:30:43.917Z,99.90
2019-04-06T03:33:13.453Z,99.90
2019-04-06T03:35:47.675Z,99.90
2019-04-06T03:38:13.315Z,99.90
2019-04-06T03:40:42.304Z,99.90
2019-04-06T03:43:11.249Z,99.90
2019-04-06T03:45:40.187Z,99.90
2019-04-06T03:48:09.245Z,99.90
2019-04-06T03:50:38.162Z,99.90
2019-04-06T03:53:07.345Z,99.90
2019-04-06T03:55:36.717Z,99.90
2019-04-06T03:58:05.823Z,99.90
2019-04-06T04:00:34.816Z,99.90
2019-04-06T04:03:04.279Z,99.90
2019-04-06T04:05:33.364Z,99.90
2019-04-06T04:08:02.373Z,99.90
2019-04-06T04:10:36.194Z,99.90
2019-04-06T04:13:05.679Z,99.90
2019-04-06T04:15:34.854Z,99.90
2019-04-06T04:18:04.765Z,99.90
2019-04-06T04:20:33.891Z,99.90
2019-04-06T04:23:02.828Z,99.90
2019-04-06T04:25:31.771Z,99.90
2019-04-06T04:28:00.804Z,99.90
2019-04-06T04:30:32.939Z,99.90
2019-04-06T04:33:00.381Z,99.90
2019-04-06T04:35:29.365Z,99.90
2019-04-06T04:37:58.298Z,99.90
2019-04-06T04:40:27.251Z,99.90
2019-04-06T04:42:56.228Z,99.90
2019-04-06T04:45:25.594Z,99.90
2019-04-06T04:47:54.584Z,99.90
2019-04-06T04:50:23.608Z,99.90
2019-04-06T04:52:52.568Z,99.90
2019-04-06T04:55:21.593Z,99.90
2019-04-06T04:57:50.557Z,99.90
2019-04-06T05:00:19.669Z,99.90
2019-04-06T05:02:48.603Z,99.90
2019-04-06T05:05:18.096Z,99.90
2019-04-06T05:07:47.114Z,99.90
2019-04-06T05:10:16.115Z,99.90
2019-04-06T05:12:45.129Z,99.90
2019-04-06T05:15:16.227Z,99.90
2019-04-06T05:17:45.478Z,99.90
2019-04-06T05:20:14.563Z,99.90
2019-04-06T05:22:43.568Z,99.90
2019-04-06T05:25:12.652Z,99.90
2019-04-06T05:27:51.256Z,99.90
2019-04-06T05:30:12.662Z,99.90
2019-04-06T05:32:41.931Z,99.90
2019-04-06T05:35:11.670Z,99.90
2019-04-06T05:37:40.545Z,99.90
2019-04-06T05:40:10.223Z,99.90
2019-04-06T05:42:39.174Z,99.90
2019-04-06T05:45:08.511Z,99.90
2019-04-06T05:47:37.524Z,99.90
2019-04-06T05:50:07.656Z,99.90
2019-04-06T05:52:36.666Z,99.90
2019-04-06T05:55:06.017Z,99.90
2019-04-06T05:57:37.187Z,99.90
2019-04-06T06:00:09.725Z,99.90
2019-04-06T06:02:40.299Z,99.90
2019-04-06T06:05:08.606Z,99.90
2019-04-06T06:07:39.153Z,99.90
2019-04-06T06:10:08.469Z,99.90
2019-04-06T06:12:37.722Z,99.90
2019-04-06T06:15:07.241Z,99.90
2019-04-06T06:17:36.143Z,99.90
2019-04-06T06:20:06.179Z,99.90
2019-04-06T06:22:35.158Z,99.90
2019-04-06T06:25:05.000Z,99.90
2019-04-06T06:27:33.963Z,99.90
2019-04-06T06:30:02.935Z,99.90
2019-04-06T06:32:34.833Z,99.90
2019-04-06T06:35:04.318Z,99.90
2019-04-06T06:37:33.284Z,99.90
2019-04-06T06:40:02.458Z,99.90
2019-04-06T06:42:31.382Z,99.90
2019-04-06T06:45:00.528Z,99.90
2019-04-06T06:47:29.511Z,99.90
2019-04-06T06:49:58.630Z,99.90
2019-04-06T06:52:27.904Z,99.90
2019-04-06T06:54:56.766Z,99.90
2019-04-06T06:57:25.992Z,99.90
2019-04-06T06:59:55.075Z,99.90
2019-04-06T07:02:24.295Z,99.90
2019-04-06T07:04:53.223Z,99.90
2019-04-06T07:07:22.488Z,99.90
2019-04-06T07:09:51.672Z,99.90
2019-04-06T07:12:20.635Z,99.90
2019-04-06T07:14:50.068Z,99.90
2019-04-06T07:17:19.273Z,99.90
2019-04-06T07:19:48.418Z,99.90
2019-04-06T07:22:17.887Z,99.90
2019-04-06T07:24:47.003Z,97.10
2019-04-06T07:27:16.342Z,72.70
2019-04-06T07:29:45.529Z,61.70
2019-04-06T07:32:14.943Z,57.80
2019-04-06T07:34:44.440Z,53.50
2019-04-06T07:37:13.540Z,49.70
2019-04-06T07:39:42.492Z,51.20
2019-04-06T07:42:11.486Z,49.50
2019-04-06T07:44:40.428Z,48.30
2019-04-06T07:47:09.378Z,46.90
2019-04-06T07:49:38.506Z,46.80
2019-04-06T07:52:07.924Z,44.20
2019-04-06T07:54:36.844Z,44.50
2019-04-06T07:57:05.888Z,43.60
2019-04-06T07:59:34.891Z,42.10
2019-04-06T08:02:04.307Z,39.60
2019-04-06T08:04:33.639Z,37.50
2019-04-06T08:07:02.755Z,36.60
2019-04-06T08:09:31.938Z,36.80
2019-04-06T08:12:00.925Z,36.10
2019-04-06T08:14:30.275Z,36.50
2019-04-06T08:16:59.715Z,35.40
2019-04-06T08:19:28.785Z,34.90
2019-04-06T08:21:57.901Z,34.60
2019-04-06T08:24:26.955Z,35.60
2019-04-06T08:26:56.034Z,37.40
2019-04-06T08:29:25.008Z,38.50
2019-04-06T08:31:54.098Z,38.50
2019-04-06T08:34:22.973Z,38.20
2019-04-06T08:36:52.221Z,37.70
2019-04-06T08:39:21.201Z,38.20
2019-04-06T08:41:56.162Z,36.70
2019-04-06T08:44:25.752Z,36.10
2019-04-06T08:46:54.948Z,37.00
2019-04-06T08:49:24.000Z,36.80
2019-04-06T08:51:53.079Z,36.30
2019-04-06T08:54:22.135Z,37.10
2019-04-06T08:56:51.733Z,37.00
2019-04-06T08:59:20.996Z,35.80
2019-04-06T09:01:50.064Z,35.60
2019-04-06T09:04:18.980Z,36.30
2019-04-06T09:06:48.126Z,36.20
2019-04-06T09:09:17.100Z,34.40
2019-04-06T09:11:46.236Z,35.70
2019-04-06T09:14:15.219Z,36.40
2019-04-06T09:16:44.445Z,36.30
2019-04-06T09:19:13.431Z,35.80
2019-04-06T09:21:42.453Z,36.10
2019-04-06T09:24:11.403Z,36.50
2019-04-06T09:26:40.619Z,37.60
2019-04-06T09:29:09.766Z,39.80
2019-04-06T09:31:39.283Z,40.30
2019-04-06T09:34:08.352Z,39.80
2019-04-06T09:36:37.284Z,37.60
2019-04-06T09:39:07.348Z,37.20
2019-04-06T09:41:36.589Z,37.20
2019-04-06T09:44:07.651Z,35.30
2019-04-06T09:46:54.633Z,37.70
2019-04-06T09:49:41.643Z,37.50
2019-04-06T09:52:28.591Z,37.70
2019-04-06T09:55:07.670Z,38.60
2019-04-06T09:57:54.858Z,38.40
2019-04-06T10:00:49.224Z,39.00
2019-04-06T10:03:31.486Z,39.10
2019-04-06T10:06:18.055Z,40.70
2019-04-06T10:09:06.084Z,41.40
2019-04-06T10:11:52.355Z,43.70
2019-04-06T10:14:28.641Z,45.60
2019-04-06T10:17:15.504Z,45.20
2019-04-06T10:20:15.790Z,46.30
2019-04-06T10:22:54.014Z,47.20
2019-04-06T10:25:32.910Z,45.30
2019-04-06T10:28:12.470Z,45.70
2019-04-06T10:30:53.674Z,45.60
2019-04-06T10:33:41.754Z,44.90
2019-04-06T10:36:32.242Z,45.80
2019-04-06T10:39:26.084Z,45.20
2019-04-06T10:42:14.148Z,46.00
2019-04-06T10:45:08.225Z,45.50
2019-04-06T10:47:49.017Z,45.80
2019-04-06T10:50:47.071Z,45.00
2019-04-06T10:53:23.790Z,44.90
2019-04-06T10:56:08.502Z,44.40
2019-04-06T10:59:02.435Z,45.60
2019-04-06T11:01:42.439Z,46.50
2019-04-06T11:04:22.676Z,45.60
2019-04-06T11:07:19.692Z,44.50
2019-04-06T11:10:08.081Z,44.60
2019-04-06T11:12:44.792Z,45.00
2019-04-06T11:15:31.770Z,43.00
2019-04-06T11:18:10.664Z,43.20
2019-04-06T11:20:53.452Z,44.00
2019-04-06T11:23:38.504Z,42.80
2019-04-06T11:26:26.732Z,43.40
2019-04-06T11:29:14.778Z,43.80
2019-04-06T11:32:02.799Z,43.50
2019-04-06T11:35:02.021Z,43.50
2019-04-06T11:38:00.883Z,44.00
2019-04-06T11:40:46.783Z,42.80
2019-04-06T11:43:22.102Z,42.50
2019-04-06T11:45:56.832Z,42.60
2019-04-06T11:48:47.663Z,43.20
2019-04-06T11:51:31.493Z,42.70
2019-04-06T11:54:19.665Z,41.80
2019-04-06T11:56:54.386Z,42.90
2019-04-06T11:59:47.599Z,41.70
2019-04-06T12:02:31.410Z,41.50
2019-04-06T12:05:09.976Z,41.70
2019-04-06T12:07:56.890Z,42.00
2019-04-06T12:10:41.149Z,41.50
2019-04-06T12:13:23.232Z,41.80
2019-04-06T12:16:14.730Z,41.40
2019-04-06T12:18:56.444Z,40.10
2019-04-06T12:21:40.553Z,40.90
2019-04-06T12:24:26.501Z,40.50
2019-04-06T12:27:06.419Z,39.70
2019-04-06T12:29:57.600Z,40.90
2019-04-06T12:32:41.072Z,41.40
2019-04-06T12:35:19.603Z,40.10
2019-04-06T12:38:01.619Z,39.40
2019-04-06T12:40:44.631Z,38.80
2019-04-06T12:43:31.036Z,38.30
2019-04-06T12:46:31.737Z,39.00
2019-04-06T12:49:23.081Z,39.90
2019-04-06T12:52:04.512Z,38.60
2019-04-06T12:54:50.035Z,38.70
2019-04-06T12:57:27.994Z,37.80
2019-04-06T13:00:21.903Z,37.80
2019-04-06T13:03:10.208Z,38.50
2019-04-06T13:05:51.112Z,37.40
2019-04-06T13:08:28.146Z,36.60
2019-04-06T13:11:14.929Z,36.80
2019-04-06T13:13:57.445Z,36.90
2019-04-06T13:16:34.797Z,36.40
2019-04-06T13:19:38.323Z,37.80
2019-04-06T13:22:32.390Z,39.10
2019-04-06T13:25:11.499Z,37.60
2019-04-06T13:27:58.437Z,37.20
2019-04-06T13:31:02.564Z,38.40
2019-04-06T13:33:33.039Z,36.90
2019-04-06T13:36:14.545Z,39.00
2019-04-06T13:39:05.725Z,37.90
2019-04-06T13:41:48.886Z,36.70
2019-04-06T13:44:36.905Z,36.50
2019-04-06T13:47:24.967Z,37.40
2019-04-06T13:50:13.111Z,37.20
2019-04-06T13:53:07.152Z,37.10
2019-04-06T13:55:58.607Z,35.80
2019-04-06T13:58:46.485Z,38.20
2019-04-06T14:01:28.945Z,34.60
2019-04-06T14:04:22.817Z,35.50
2019-04-06T14:07:11.333Z,38.10
2019-04-06T14:09:58.409Z,36.20
2019-04-06T14:12:52.722Z,36.20
2019-04-06T14:15:40.075Z,35.10
2019-04-06T14:18:40.881Z,34.30
2019-04-06T14:21:35.410Z,34.90
2019-04-06T14:24:23.871Z,35.40
2019-04-06T14:27:10.167Z,36.60
2019-04-06T14:29:45.221Z,36.60
2019-04-06T14:32:42.285Z,35.70
2019-04-06T14:35:30.512Z,36.20
2019-04-06T14:38:08.579Z,35.60
2019-04-06T14:40:47.932Z,35.20
2019-04-06T14:43:33.303Z,36.50
2019-04-06T14:46:40.055Z,36.20
2019-04-06T14:49:33.084Z,36.40
2019-04-06T14:52:30.456Z,36.60
2019-04-06T14:55:24.523Z,37.00
2019-04-06T14:58:10.544Z,35.90
2019-04-06T15:00:50.131Z,35.50
2019-04-06T15:03:34.935Z,35.10
2019-04-06T15:06:29.281Z,35.40
2019-04-06T15:09:06.426Z,35.60
2019-04-06T15:12:00.564Z,36.50
2019-04-06T15:14:59.363Z,36.30
2019-04-06T15:17:40.499Z,36.30
2019-04-06T15:20:19.489Z,37.90
2019-04-06T15:23:05.867Z,37.40
2019-04-06T15:26:00.110Z,36.60
2019-04-06T15:28:51.930Z,36.20
2019-04-06T15:31:34.921Z,37.40
2019-04-06T15:34:22.905Z,37.00
2019-04-06T15:37:06.745Z,36.70
2019-04-06T15:39:53.631Z,37.50
2019-04-06T15:42:35.209Z,37.40
2019-04-06T15:45:20.087Z,37.80
2019-04-06T15:47:59.560Z,36.30
2019-04-06T15:51:06.251Z,35.80
2019-04-06T15:53:51.038Z,36.20
2019-04-06T15:56:26.868Z,37.00
2019-04-06T15:59:04.180Z,35.60
2019-04-06T16:01:58.506Z,35.90
2019-04-06T16:04:25.315Z,37.30
2019-04-06T16:07:30.121Z,37.20
2019-04-06T16:10:15.649Z,37.00
2019-04-06T16:13:02.497Z,36.60
2019-04-06T16:15:52.616Z,36.90
2019-04-06T16:18:47.337Z,37.60
2019-04-06T16:21:35.640Z,37.30
2019-04-06T16:24:15.106Z,36.50
2019-04-06T16:26:53.576Z,38.00
2019-04-06T16:29:39.863Z,38.30
2019-04-06T16:32:33.692Z,38.60
2019-04-06T16:35:29.633Z,38.00
2019-04-06T16:38:07.734Z,38.40
2019-04-06T16:41:00.558Z,38.80
2019-04-06T16:43:47.174Z,39.30
2019-04-06T16:46:34.041Z,38.40
2019-04-06T16:49:34.279Z,39.40
2019-04-06T16:52:16.799Z,39.60
2019-04-06T16:55:10.991Z,39.10
2019-04-06T16:57:59.277Z,39.80
2019-04-06T17:00:38.818Z,39.80
2019-04-06T17:03:21.569Z,40.10
2019-04-06T17:06:08.499Z,40.70
2019-04-06T17:08:47.010Z,40.40
2019-04-06T17:11:28.244Z,41.40
2019-04-06T17:14:28.662Z,41.20
2019-04-06T17:17:25.764Z,41.30
2019-04-06T17:20:05.744Z,41.70
2019-04-06T17:22:47.199Z,41.80
2019-04-06T17:25:41.475Z,42.10
2019-04-06T17:28:28.819Z,42.00
2019-04-06T17:31:20.056Z,43.30
2019-04-06T17:34:17.656Z,43.70
2019-04-06T17:37:11.614Z,43.00
2019-04-06T17:39:54.163Z,43.60
2019-04-06T17:42:35.046Z,44.30
2019-04-06T17:45:30.946Z,44.00
2019-04-06T17:48:18.402Z,46.40
2019-04-06T17:51:05.396Z,48.20
2019-04-06T17:53:49.233Z,47.20
2019-04-06T17:56:30.718Z,48.10
2019-04-06T17:59:17.570Z,49.00
2019-04-06T18:02:05.922Z,49.90
2019-04-06T18:04:47.845Z,49.90
2019-04-06T18:07:36.011Z,48.90
2019-04-06T18:10:16.219Z,49.20
2019-04-06T18:12:54.848Z,50.90
2019-04-06T18:15:24.063Z,52.60
2019-04-06T18:17:53.273Z,52.50
2019-04-06T18:20:22.320Z,53.70
2019-04-06T18:22:51.652Z,54.20
2019-04-06T18:25:20.979Z,54.10
2019-04-06T18:27:50.533Z,56.30
2019-04-06T18:30:20.200Z,56.00
2019-04-06T18:33:00.744Z,55.20
2019-04-06T18:35:26.149Z,55.30
2019-04-06T18:38:10.067Z,55.80
2019-04-06T18:40:39.162Z,56.50
2019-04-06T18:43:08.817Z,57.50
2019-04-06T18:45:37.974Z,59.10
2019-04-06T18:48:06.991Z,61.40
2019-04-06T18:50:38.300Z,63.20
2019-04-06T18:53:06.635Z,64.90
2019-04-06T18:55:35.950Z,65.30
2019-04-06T18:58:11.233Z,64.50
2019-04-06T19:00:36.024Z,65.30
2019-04-06T19:03:12.569Z,67.70
2019-04-06T19:05:35.751Z,69.70
2019-04-06T19:08:05.224Z,74.90
2019-04-06T19:10:34.312Z,77.80
2019-04-06T19:13:04.390Z,84.10
2019-04-06T19:15:33.617Z,85.50
2019-04-06T19:18:02.685Z,93.90
2019-04-06T19:20:31.944Z,97.60
2019-04-06T19:23:01.476Z,98.20
2019-04-06T19:25:31.812Z,99.90
2019-04-06T19:28:01.034Z,99.90
2019-04-06T19:30:30.579Z,99.90
2019-04-06T19:32:59.910Z,99.90
2019-04-06T19:35:29.261Z,99.90
2019-04-06T19:37:58.442Z,99.90
2019-04-06T19:40:27.446Z,99.90
2019-04-06T19:42:57.466Z,99.90
2019-04-06T19:45:26.446Z,99.90
2019-04-06T19:47:56.601Z,99.90
2019-04-06T19:50:26.188Z,99.90
2019-04-06T19:52:55.387Z,99.90
2019-04-06T19:55:24.593Z,99.90
2019-04-06T19:57:53.724Z,99.90
2019-04-06T20:00:23.895Z,99.90
2019-04-06T20:02:52.962Z,99.90
2019-04-06T20:05:22.191Z,99.90
2019-04-06T20:07:51.450Z,99.90
2019-04-06T20:10:20.859Z,99.90
2019-04-06T20:12:50.320Z,99.90
2019-04-06T20:15:19.797Z,99.90
2019-04-06T20:17:48.770Z,99.90
2019-04-06T20:20:18.673Z,99.90
2019-04-06T20:22:48.407Z,99.90
2019-04-06T20:25:17.775Z,99.90
2019-04-06T20:27:46.821Z,99.90
2019-04-06T20:30:16.189Z,99.90
2019-04-06T20:32:45.704Z,99.90
2019-04-06T20:35:15.690Z,99.90
2019-04-06T20:37:44.707Z,99.90
2019-04-06T20:40:14.157Z,99.90
2019-04-06T20:42:43.280Z,99.90
2019-04-06T20:45:13.072Z,99.90
2019-04-06T20:47:42.161Z,99.90
2019-04-06T20:50:12.132Z,99.90
2019-04-06T20:52:41.597Z,99.90
2019-04-06T20:55:11.133Z,99.90
2019-04-06T20:57:40.543Z,99.90
2019-04-06T21:00:11.166Z,99.90
2019-04-06T21:02:40.312Z,99.90
2019-04-06T21:05:09.493Z,99.90
2019-04-06T21:07:38.494Z,99.90
2019-04-06T21:10:07.869Z,99.90
2019-04-06T21:12:36.967Z,99.90
2019-04-06T21:15:16.899Z,99.90
2019-04-06T21:17:37.329Z,99.90
2019-04-06T21:20:07.363Z,99.90
2019-04-06T21:22:36.735Z,99.90
2019-04-06T21:25:06.970Z,99.90
2019-04-06T21:27:36.315Z,99.90
2019-04-06T21:30:06.375Z,99.90
2019-04-06T21:32:36.028Z,99.90
2019-04-06T21:35:05.769Z,99.90
2019-04-06T21:37:34.859Z,99.90
2019-04-06T21:40:04.067Z,99.90
2019-04-06T21:42:33.141Z,99.90
2019-04-06T21:45:02.095Z,99.90
2019-04-06T21:47:31.152Z,99.90
2019-04-06T21:50:00.292Z,99.90
2019-04-06T21:52:29.724Z,99.90
2019-04-06T21:54:59.153Z,99.90
2019-04-06T21:57:28.176Z,99.90
2019-04-06T21:59:57.443Z,99.90
2019-04-06T22:02:26.581Z,99.90
2019-04-06T22:04:55.631Z,99.90
2019-04-06T22:07:25.495Z,99.90
2019-04-06T22:09:54.874Z,99.90
2019-04-06T22:12:25.013Z,99.90
2019-04-06T22:14:54.242Z,99.90
2019-04-06T22:17:23.294Z,99.90
2019-04-06T22:19:52.687Z,99.90
2019-04-06T22:22:22.248Z,99.90
2019-04-06T22:24:51.838Z,99.90
2019-04-06T22:27:21.226Z,99.90
2019-04-06T22:29:50.182Z,99.90
2019-04-06T22:32:19.566Z,99.90
2019-04-06T22:34:48.938Z,99.90
2019-04-06T22:37:17.944Z,99.90
2019-04-06T22:39:46.929Z,99.90
2019-04-06T22:42:15.868Z,99.90
2019-04-06T22:44:45.219Z,99.90
2019-04-06T22:47:14.419Z,99.90
2019-04-06T22:49:43.423Z,99.90
2019-04-06T22:52:12.844Z,99.90
2019-04-06T22:54:41.873Z,99.90
2019-04-06T22:57:10.814Z,99.90
2019-04-06T22:59:40.399Z,99.90
2019-04-06T23:02:09.846Z,99.90
2019-04-06T23:04:54.130Z,99.90
2019-04-06T23:07:24.875Z,99.90
2019-04-06T23:09:54.161Z,99.90
2019-04-06T23:12:23.474Z,99.90
2019-04-06T23:14:53.668Z,99.90
2019-04-06T23:17:23.084Z,99.90
2019-04-06T23:19:52.288Z,99.90
2019-04-06T23:22:21.785Z,99.90
2019-04-06T23:24:51.387Z,99.90
2019-04-06T23:27:20.507Z,99.90
2019-04-06T23:29:49.667Z,99.90
2019-04-06T23:32:18.725Z,99.90
2019-04-06T23:34:58.357Z,99.90
2019-04-06T23:37:18.479Z,99.90
2019-04-06T23:39:48.187Z,99.90
2019-04-06T23:42:17.443Z,99.90
2019-04-06T23:44:46.513Z,99.90
2019-04-06T23:47:16.036Z,99.90
2019-04-06T23:49:46.188Z,99.90
2019-04-06T23:52:15.555Z,99.90
2019-04-06T23:54:44.665Z,99.90
2019-04-06T23:57:14.129Z,99.90
2019-04-06T23:59:43.347Z,99.90
